メインページ
METAR-TAF:

METAR-TAF

空港 :

ケープタウン国際空港

ケープタウン, 南アフリカ共和国

緯度: 33-59S, 経度: 018-36E, 海抜: 42m

現時点の気象観測

当レポートは49分前の15:00(UTC)に作成
の風 6kt
気温 17°C
湿度 72%
気圧 1017 hPa
視程10km以上
1,500メートル以下は雲なし、積乱雲なし

METAR: FACT 251500Z 17006KT CAVOK 17/12 Q1017 NOSIG

時間: 17:49 (15:49 UTC)

予報

当レポートは5時間49分前の10:00(UTC)に作成
予報は25日の 12時(UTC)から 26日の 18時(UTC)まで有効
の風 15kt
視程10km以上
高度3000ftの雲はほとんどない
25日の 18時(UTC)から 25日の 20時(UTC)まで徐々に
南/南西の風 4kt
26日の 0100時(UTC)から
の風 6kt
視程10km以上
高度1200ftの雲はほとんどない
26日の 05時(UTC)から 26日の 13時(UTC)まで一時的に
高度1000ftの千切れ雲あり
確率 30% :
26日の 05時(UTC)から 26日の 08時(UTC)まで一時的に
視程: 3000m
高度600ftの千切れ雲あり
26日の 1300時(UTC)から
北/北西の風 14kt
視程10km以上
高度1600ftの雲はほとんどない
高度3000ftの千切れ雲あり

TAF: FACT 251000Z 2512/2618 18015KT 9999 FEW030 BECMG 2518/2520 21004KT FM260100 01006KT 9999 FEW012 TEMPO 2605/2613 BKN010 PROB30 TEMPO 2605/2608 3000 BR BKN006 FM261300 34014KT 9999 FEW016 BKN030 TX18/2512Z TN09/2606Z

4,000以上の空港の気象観測と天気予報(METAR報とTAF報)

利用可能な観測所は地図上に黄色い丸と赤い丸で示す。

丸の上にカーソルを重ねると観測所名を参照できる。

次にクリックすると気象観測と天気予報を参照できる。

マップの切り替え:黒色「×」印の緑ボタンをクリックして拡大、「-」印の緑ボタンをクリックして縮小、緑色の三角印をクリックして隣りの地図に切り替え


METAR-TAF: